ANT825 CYXY-CYYZ
Flight info
| Callsign | ANT825 |
|---|---|
| Flight time | N/A |
| Altitude | 33000 |
| Route | KODEM DCT URSEK DCT VINVI DCT DUNDU DCT 60N125W DCT VODOO DCT 5730N11000W 5430N10000W 52N094W DCT TADIS DCT OTNIK BOXUM7 |
| Aircraft | B735/M-SDFHIW/S |
Departure
| Time | 2026-04-28 01:59 |
|---|---|
| Airport | Whitehorse / Erik Nielsen International Airport (CYXY) |
Arrival
| Time | N/A |
|---|---|
| Airport | Toronto Pearson International Airport (CYYZ) |
| Time | Latitude | Longitude | Altitude | Speed | Heading |
|---|---|---|---|---|---|
| 2026-04-28 01:42 | 60.71426 | -135.07505 | 2286 ft | 0 kts | 263° |
| 2026-04-28 01:49 | 60.71427 | -135.07496 | 2303 ft | 0 kts | 263° |
| 2026-04-28 01:49 | 60.71430 | -135.07443 | 2291 ft | 0 kts | 265° |
| 2026-04-28 01:49 | 60.71427 | -135.07389 | 2296 ft | 4 kts | 298° |
| 2026-04-28 01:50 | 60.71410 | -135.07357 | 2297 ft | 2 kts | 339° |
| 2026-04-28 01:50 | 60.71405 | -135.07353 | 2293 ft | 0 kts | 339° |
| 2026-04-28 01:52 | 60.71419 | -135.07363 | 2295 ft | 4 kts | 339° |
| 2026-04-28 01:53 | 60.71449 | -135.07387 | 2292 ft | 5 kts | 339° |
| 2026-04-28 01:53 | 60.71484 | -135.07413 | 2297 ft | 5 kts | 339° |
| 2026-04-28 01:53 | 60.71519 | -135.07441 | 2301 ft | 6 kts | 339° |
| 2026-04-28 01:53 | 60.71555 | -135.07469 | 2291 ft | 6 kts | 339° |
| 2026-04-28 01:54 | 60.71592 | -135.07498 | 2294 ft | 6 kts | 339° |
| 2026-04-28 01:54 | 60.71628 | -135.07526 | 2294 ft | 6 kts | 339° |
| 2026-04-28 01:54 | 60.71665 | -135.07555 | 2298 ft | 6 kts | 339° |
| 2026-04-28 01:54 | 60.71703 | -135.07583 | 2291 ft | 6 kts | 340° |
| 2026-04-28 01:55 | 60.71744 | -135.07614 | 2294 ft | 7 kts | 340° |
| 2026-04-28 01:55 | 60.71788 | -135.07648 | 2296 ft | 7 kts | 339° |
| 2026-04-28 01:55 | 60.71834 | -135.07684 | 2292 ft | 7 kts | 339° |
| 2026-04-28 01:55 | 60.71881 | -135.07720 | 2291 ft | 7 kts | 339° |
| 2026-04-28 01:56 | 60.71929 | -135.07757 | 2303 ft | 8 kts | 339° |
| 2026-04-28 01:56 | 60.71986 | -135.07802 | 2292 ft | 9 kts | 339° |
| 2026-04-28 01:56 | 60.72048 | -135.07851 | 2293 ft | 9 kts | 339° |
| 2026-04-28 01:56 | 60.72105 | -135.07871 | 2283 ft | 8 kts | 15° |
| 2026-04-28 01:57 | 60.72132 | -135.07798 | 2283 ft | 6 kts | 70° |
| 2026-04-28 01:57 | 60.72145 | -135.07717 | 2283 ft | 6 kts | 71° |
| 2026-04-28 01:57 | 60.72142 | -135.07651 | 2283 ft | 4 kts | 140° |
| 2026-04-28 01:57 | 60.72111 | -135.07626 | 2283 ft | 7 kts | 161° |
| 2026-04-28 01:58 | 60.71933 | -135.07493 | 2295 ft | 53 kts | 160° |
| 2026-04-28 01:58 | 60.71422 | -135.07095 | 2297 ft | 106 kts | 159° |
| 2026-04-28 01:58 | 60.70554 | -135.06429 | 2308 ft | 158 kts | 159° |
| 2026-04-28 01:58 | 60.69418 | -135.05568 | 2610 ft | 184 kts | 160° |
| 2026-04-28 01:59 | 60.68222 | -135.04525 | 3227 ft | 192 kts | 159° |
| 2026-04-28 01:59 | 60.66917 | -135.03468 | 3791 ft | 209 kts | 163° |
| 2026-04-28 01:59 | 60.65546 | -135.02556 | 4476 ft | 212 kts | 154° |
| 2026-04-28 01:59 | 60.64265 | -135.00982 | 5390 ft | 210 kts | 163° |
| 2026-04-28 02:00 | 60.62918 | -135.00037 | 6397 ft | 203 kts | 173° |
| 2026-04-28 02:00 | 60.61548 | -134.99101 | 7124 ft | 213 kts | 148° |
| 2026-04-28 02:00 | 60.60442 | -134.96995 | 7787 ft | 223 kts | 124° |
| 2026-04-28 02:00 | 60.59987 | -134.93994 | 8415 ft | 231 kts | 88° |
| 2026-04-28 02:01 | 60.60197 | -134.90771 | 9280 ft | 229 kts | 79° |
| 2026-04-28 02:01 | 60.60171 | -134.87525 | 10033 ft | 233 kts | 104° |
| 2026-04-28 02:01 | 60.59710 | -134.84349 | 10754 ft | 235 kts | 104° |
| 2026-04-28 02:01 | 60.59316 | -134.81070 | 11368 ft | 242 kts | 103° |
| 2026-04-28 02:02 | 60.58916 | -134.77710 | 12074 ft | 246 kts | 104° |
| 2026-04-28 02:02 | 60.58487 | -134.74292 | 12735 ft | 251 kts | 104° |
| 2026-04-28 02:02 | 60.58043 | -134.70818 | 13425 ft | 255 kts | 104° |
| 2026-04-28 02:02 | 60.57591 | -134.67305 | 14055 ft | 262 kts | 104° |
| 2026-04-28 02:03 | 60.57117 | -134.63654 | 14558 ft | 271 kts | 105° |
| 2026-04-28 02:03 | 60.56631 | -134.59930 | 15077 ft | 281 kts | 105° |
| 2026-04-28 02:03 | 60.56121 | -134.56031 | 15590 ft | 290 kts | 105° |
| 2026-04-28 02:03 | 60.55592 | -134.52006 | 15990 ft | 300 kts | 105° |
| 2026-04-28 02:04 | 60.55064 | -134.47840 | 16530 ft | 310 kts | 103° |
| 2026-04-28 02:04 | 60.54621 | -134.43479 | 17070 ft | 320 kts | 100° |
| 2026-04-28 02:04 | 60.54257 | -134.38937 | 17618 ft | 331 kts | 98° |
| 2026-04-28 02:04 | 60.53912 | -134.34233 | 18184 ft | 342 kts | 98° |
| 2026-04-28 02:05 | 60.53553 | -134.29383 | 18693 ft | 353 kts | 98° |
| 2026-04-28 02:05 | 60.53176 | -134.24381 | 19180 ft | 364 kts | 98° |
| 2026-04-28 02:05 | 60.52782 | -134.19212 | 19687 ft | 375 kts | 98° |
| 2026-04-28 02:05 | 60.52380 | -134.13972 | 20201 ft | 385 kts | 98° |
| 2026-04-28 02:06 | 60.51964 | -134.08530 | 20718 ft | 396 kts | 98° |
| 2026-04-28 02:06 | 60.51536 | -134.02916 | 21247 ft | 406 kts | 98° |
| 2026-04-28 02:06 | 60.51098 | -133.97188 | 21810 ft | 414 kts | 98° |
| 2026-04-28 02:06 | 60.50658 | -133.91428 | 22751 ft | 411 kts | 98° |
| 2026-04-28 02:07 | 60.50220 | -133.85694 | 23675 ft | 410 kts | 98° |
| 2026-04-28 02:07 | 60.49780 | -133.79941 | 24157 ft | 418 kts | 99° |
| 2026-04-28 02:07 | 60.49332 | -133.74069 | 24715 ft | 422 kts | 99° |
| 2026-04-28 02:07 | 60.48882 | -133.68188 | 25374 ft | 424 kts | 99° |
| 2026-04-28 02:08 | 60.48426 | -133.62228 | 25855 ft | 430 kts | 99° |
| 2026-04-28 02:08 | 60.47967 | -133.56218 | 26387 ft | 435 kts | 99° |
| 2026-04-28 02:08 | 60.47501 | -133.50147 | 27134 ft | 433 kts | 99° |
| 2026-04-28 02:08 | 60.47043 | -133.44178 | 27807 ft | 434 kts | 99° |
| 2026-04-28 02:09 | 60.46578 | -133.38074 | 28129 ft | 443 kts | 99° |
| 2026-04-28 02:09 | 60.46099 | -133.31803 | 28261 ft | 457 kts | 99° |
| 2026-04-28 02:09 | 60.45611 | -133.25406 | 28812 ft | 460 kts | 99° |
| 2026-04-28 02:09 | 60.45120 | -133.18991 | 29408 ft | 462 kts | 99° |
| 2026-04-28 02:10 | 60.44625 | -133.12531 | 29892 ft | 467 kts | 99° |
| 2026-04-28 02:10 | 60.44126 | -133.06009 | 30464 ft | 468 kts | 99° |
| 2026-04-28 02:10 | 60.43629 | -132.99514 | 31111 ft | 466 kts | 99° |
| 2026-04-28 02:10 | 60.43132 | -132.93010 | 31656 ft | 467 kts | 99° |
| 2026-04-28 02:11 | 60.42634 | -132.86505 | 32096 ft | 469 kts | 99° |
| 2026-04-28 02:11 | 60.42133 | -132.79954 | 32558 ft | 471 kts | 99° |
| 2026-04-28 02:11 | 60.41630 | -132.73371 | 32792 ft | 471 kts | 99° |
| 2026-04-28 02:11 | 60.41137 | -132.66924 | 33011 ft | 467 kts | 99° |
| 2026-04-28 02:12 | 60.40132 | -132.53845 | 33082 ft | 476 kts | 99° |
| 2026-04-28 02:12 | 60.39108 | -132.40501 | 33086 ft | 481 kts | 99° |
| 2026-04-28 02:13 | 60.38086 | -132.27190 | 33046 ft | 477 kts | 99° |
| 2026-04-28 02:13 | 60.37072 | -132.13946 | 33047 ft | 478 kts | 99° |
| 2026-04-28 02:14 | 60.36059 | -132.00737 | 33036 ft | 479 kts | 99° |
| 2026-04-28 02:14 | 60.35041 | -131.87455 | 33047 ft | 477 kts | 99° |
| 2026-04-28 02:15 | 60.33504 | -131.67437 | 33033 ft | 482 kts | 99° |
| 2026-04-28 02:16 | 60.32476 | -131.54081 | 33021 ft | 481 kts | 99° |
| 2026-04-28 02:16 | 60.31456 | -131.40747 | 33015 ft | 481 kts | 99° |
| 2026-04-28 02:17 | 60.30435 | -131.27471 | 33012 ft | 482 kts | 99° |
| 2026-04-28 02:17 | 60.29405 | -131.14099 | 33000 ft | 482 kts | 99° |
| 2026-04-28 02:18 | 60.28376 | -131.00722 | 32996 ft | 482 kts | 99° |
| 2026-04-28 02:18 | 60.27350 | -130.87366 | 32998 ft | 481 kts | 99° |
| 2026-04-28 02:19 | 60.26333 | -130.74052 | 32986 ft | 487 kts | 99° |
| 2026-04-28 02:19 | 60.25291 | -130.60527 | 32969 ft | 486 kts | 99° |
| 2026-04-28 02:20 | 60.24428 | -130.49389 | 32974 ft | 484 kts | 99° |
| 2026-04-28 02:20 | 60.23222 | -130.33761 | 32976 ft | 487 kts | 99° |
| 2026-04-28 02:21 | 60.22183 | -130.20271 | 33937 ft | 481 kts | 99° |
| 2026-04-28 02:21 | 60.21845 | -130.15871 | 34396 ft | 475 kts | 99° |
| 2026-04-28 02:21 | 60.21339 | -130.09302 | 34672 ft | 477 kts | 99° |
| 2026-04-28 02:21 | 60.20832 | -130.02729 | 34892 ft | 476 kts | 99° |
| 2026-04-28 02:22 | 60.20325 | -129.96147 | 34886 ft | 478 kts | 99° |
| 2026-04-28 02:22 | 60.19811 | -129.89501 | 34598 ft | 484 kts | 99° |
| 2026-04-28 02:22 | 60.19292 | -129.82766 | 34583 ft | 491 kts | 99° |
| 2026-04-28 02:22 | 60.18769 | -129.75986 | 35010 ft | 489 kts | 98° |
| 2026-04-28 02:23 | 60.18246 | -129.69187 | 35040 ft | 497 kts | 98° |
| 2026-04-28 02:23 | 60.17189 | -129.55490 | 34970 ft | 492 kts | 98° |
| 2026-04-28 02:24 | 60.16133 | -129.41834 | 34991 ft | 500 kts | 98° |
| 2026-04-28 02:24 | 60.15063 | -129.27965 | 34950 ft | 508 kts | 98° |
| 2026-04-28 02:25 | 60.13981 | -129.13957 | 34928 ft | 506 kts | 98° |
| 2026-04-28 02:25 | 60.12907 | -129.00033 | 34909 ft | 503 kts | 98° |
| 2026-04-28 02:26 | 60.11839 | -128.86152 | 34914 ft | 505 kts | 98° |
| 2026-04-28 02:26 | 60.10758 | -128.72217 | 34912 ft | 507 kts | 98° |
| 2026-04-28 02:27 | 60.09674 | -128.58226 | 34917 ft | 508 kts | 98° |
| 2026-04-28 02:27 | 60.08591 | -128.44228 | 34934 ft | 508 kts | 98° |
| 2026-04-28 02:28 | 60.07516 | -128.30344 | 34953 ft | 507 kts | 98° |